Terminal Aerodrome Forecast
Issued by NWS Northern Indiana

Home | Current Version | Previous Version | Graphics & Text | Print | Product List | Glossary On
Versions: 1 2 3 4 5 6 7 8 9 10 11 12 13 14 15 16 17 18 19 20 21 22
395
FTUS43 KIWX 102224 AAA
TAFFWA
TAF AMD
KFWA 102224Z 1022/1118 26008KT P6SM BKN035
     FM111000 20004KT P6SM SCT020 BKN100
     FM111500 20010KT P6SM OVC040=

USA.gov is the U.S. government's official web portal to all federal, state and local government web resources and services.